Time;durP1;ratioP1;P1;durP2;ratioP2;P2;SDS_P1;SDS_P2;PMS_P1;PMS_P2;Temp;Humidity;BMP_temperature;BMP_pressure;BME280_temperature;BME280_humidity;BME280_pressure;Samples;Min_cycle;Max_cycle;Signal;HPM_P1;HPM_P2
2021/07/25 21:02:01;;;;;;;6.18;3.80;;;20.70;84.90;;;;;;5132273;27;20565;-74
2021/07/25 21:04:27;;;;;;;6.10;3.70;;;20.60;85.00;;;;;;5111262;28;20051;-76
2021/07/25 21:06:52;;;;;;;5.82;3.55;;;20.60;85.30;;;;;;5110112;28;20479;-76
2021/07/25 21:09:31;;;;;;;6.03;3.63;;;20.60;85.40;;;;;;5098544;28;20115;-74
2021/07/25 21:12:02;;;;;;;7.18;4.00;;;20.50;85.50;;;;;;5089091;28;20546;-74
2021/07/25 21:14:28;;;;;;;5.82;3.75;;;20.50;85.70;;;;;;5088889;28;20024;-74
2021/07/25 21:16:53;;;;;;;5.82;3.88;;;20.50;85.90;;;;;;5089361;28;20016;-75
2021/07/25 21:19:20;;;;;;;7.90;4.85;;;20.50;85.90;;;;;;5091272;28;20093;-73
2021/07/25 21:21:46;;;;;;;7.22;5.05;;;20.50;86.10;;;;;;5090147;28;20369;-74
2021/07/25 21:24:11;;;;;;;7.97;4.55;;;20.50;86.40;;;;;;5088937;28;20090;-75
2021/07/25 21:26:40;;;;;;;7.05;4.53;;;20.50;86.40;;;;;;5090861;28;20476;-75
2021/07/25 21:29:06;;;;;;;8.23;5.40;;;20.40;86.40;;;;;;5089769;28;20027;-74
2021/07/25 21:31:35;;;;;;;6.47;4.57;;;20.50;86.50;;;;;;5090786;28;20028;-75
2021/07/25 21:34:00;;;;;;;6.90;4.22;;;20.40;86.30;;;;;;5093917;28;20024;-75
2021/07/25 21:36:26;;;;;;;7.25;5.15;;;20.40;86.40;;;;;;5088581;28;20483;-76
2021/07/25 21:38:52;;;;;;;7.75;4.82;;;20.40;86.80;;;;;;5089545;28;20113;-75
2021/07/25 21:41:19;;;;;;;6.50;4.13;;;20.40;86.90;;;;;;5080403;28;20108;-75
2021/07/25 21:43:45;;;;;;;8.02;5.50;;;20.40;86.90;;;;;;5067326;28;20017;-75
2021/07/25 21:46:11;;;;;;;9.10;4.90;;;20.40;86.90;;;;;;5067284;28;20048;-76
2021/07/25 21:48:38;;;;;;;7.75;5.05;;;20.40;87.00;;;;;;5067804;28;20044;-75
2021/07/25 21:51:03;;;;;;;6.28;4.53;;;20.40;87.30;;;;;;5067513;28;20025;-74
2021/07/25 21:53:30;;;;;;;6.18;4.30;;;20.40;87.30;;;;;;5068234;28;20457;-74
2021/07/25 21:55:55;;;;;;;7.60;4.93;;;20.40;87.30;;;;;;5069751;28;20416;-75
2021/07/25 21:58:21;;;;;;;6.22;4.18;;;20.40;87.30;;;;;;5068512;28;20025;-75
2021/07/25 22:00:50;;;;;;;7.70;5.10;;;20.40;87.30;;;;;;5067433;28;20052;-75
2021/07/25 22:03:37;;;;;;;7.63;5.82;;;20.50;87.50;;;;;;5068210;28;20052;-75
2021/07/25 22:06:04;;;;;;;7.72;5.38;;;20.40;87.90;;;;;;5080841;28;20033;-75
2021/07/25 22:08:30;;;;;;;9.23;5.85;;;20.40;88.00;;;;;;5071907;28;20040;-76
2021/07/25 22:10:56;;;;;;;8.68;5.10;;;20.40;88.20;;;;;;5066986;28;20029;-75
2021/07/25 22:13:22;;;;;;;7.47;5.60;;;20.40;88.30;;;;;;5053275;28;20033;-76
2021/07/25 22:15:50;;;;;;;8.55;5.55;;;20.40;88.40;;;;;;5055285;28;20028;-76
2021/07/25 22:18:15;;;;;;;10.50;6.90;;;20.40;88.60;;;;;;5054697;28;20021;-75
2021/07/25 22:20:41;;;;;;;8.05;5.30;;;20.40;88.70;;;;;;5054989;28;20056;-74
2021/07/25 22:23:06;;;;;;;10.32;7.50;;;20.40;88.70;;;;;;5053482;28;20029;-76
2021/07/25 22:25:35;;;;;;;11.57;7.95;;;20.40;88.80;;;;;;5056570;28;20032;-76
2021/07/25 22:28:01;;;;;;;10.80;7.40;;;20.40;88.90;;;;;;5056726;28;20025;-76
2021/07/25 22:30:27;;;;;;;11.35;6.43;;;20.40;89.00;;;;;;5055022;28;20271;-76
2021/07/25 22:32:52;;;;;;;9.32;5.90;;;20.40;89.00;;;;;;5055155;28;20252;-75
2021/07/25 22:35:18;;;;;;;7.50;5.72;;;20.40;88.90;;;;;;5053620;28;20025;-75
2021/07/25 22:37:44;;;;;;;6.93;4.82;;;20.40;88.80;;;;;;5055058;28;20098;-75
2021/07/25 22:40:13;;;;;;;9.93;6.18;;;20.40;88.70;;;;;;5053294;28;20037;-75
2021/07/25 22:42:39;;;;;;;8.83;5.87;;;20.40;88.60;;;;;;5055934;28;20167;-76
2021/07/25 22:45:05;;;;;;;9.55;5.97;;;20.40;88.70;;;;;;5056149;28;20109;-75
2021/07/25 22:47:31;;;;;;;8.20;5.25;;;20.40;88.70;;;;;;5059934;28;20082;-75
2021/07/25 22:49:56;;;;;;;11.95;6.90;;;20.40;88.70;;;;;;5056549;28;20021;-76
2021/07/25 22:52:24;;;;;;;9.65;6.78;;;20.40;88.90;;;;;;5053583;28;20082;-75
2021/07/25 22:54:50;;;;;;;8.15;4.97;;;20.40;89.20;;;;;;5055340;28;20103;-76
2021/07/25 22:57:15;;;;;;;7.93;5.60;;;20.40;89.20;;;;;;5053106;28;20029;-76
2021/07/25 22:59:41;;;;;;;10.68;6.15;;;20.50;89.20;;;;;;5053047;28;20025;-75
2021/07/25 23:02:07;;;;;;;9.00;6.47;;;20.50;90.00;;;;;;5053437;28;20057;-75
2021/07/25 23:04:33;;;;;;;10.00;6.57;;;20.50;89.20;;;;;;5054130;28;20515;-75
2021/07/25 23:07:02;;;;;;;10.50;7.35;;;20.50;89.30;;;;;;5054850;28;20023;-76
2021/07/25 23:09:28;;;;;;;10.63;6.97;;;20.50;89.50;;;;;;5054296;28;20017;-74
2021/07/25 23:11:54;;;;;;;9.38;6.47;;;20.50;89.70;;;;;;5054109;28;20036;-76
2021/07/25 23:14:19;;;;;;;11.82;7.95;;;20.50;89.80;;;;;;5052851;28;20025;-75
2021/07/25 23:16:45;;;;;;;9.57;6.65;;;20.50;90.00;;;;;;5054630;28;20025;-75
2021/07/25 23:19:10;;;;;;;10.30;6.75;;;20.50;90.00;;;;;;5054684;28;20544;-75
2021/07/25 23:21:36;;;;;;;10.93;8.02;;;20.50;90.00;;;;;;5060428;28;20108;-75
2021/07/25 23:24:02;;;;;;;9.45;6.18;;;20.50;90.00;;;;;;5055355;28;20033;-77
2021/07/25 23:26:28;;;;;;;11.00;7.90;;;20.40;90.00;;;;;;5052888;28;20142;-76
2021/07/25 23:28:53;;;;;;;11.95;8.05;;;20.50;90.00;;;;;;5052602;28;20056;-76
2021/07/25 23:31:19;;;;;;;10.40;6.95;;;20.40;90.00;;;;;;5053390;28;20048;-75
2021/07/25 23:33:44;;;;;;;12.43;7.88;;;20.40;90.00;;;;;;5052393;28;20017;-76
2021/07/25 23:36:10;;;;;;;13.88;8.90;;;20.40;90.10;;;;;;5052322;28;20420;-76
2021/07/25 23:38:36;;;;;;;9.75;7.40;;;20.30;90.00;;;;;;5052355;28;20485;-76
2021/07/25 23:41:12;;;;;;;10.15;7.57;;;20.20;90.00;;;;;;5052133;28;20037;-74
2021/07/25 23:43:39;;;;;;;10.25;6.60;;;20.30;90.10;;;;;;5052279;28;20493;-74
2021/07/25 23:46:07;;;;;;;9.93;7.35;;;20.30;90.10;;;;;;5053252;28;20469;-75
2021/07/25 23:48:34;;;;;;;9.38;6.43;;;20.30;90.10;;;;;;5053603;28;20057;-76
2021/07/25 23:51:00;;;;;;;10.15;6.72;;;20.30;90.10;;;;;;5052322;28;20052;-75
2021/07/25 23:53:26;;;;;;;10.23;6.25;;;20.20;90.10;;;;;;5052033;28;20047;-76
2021/07/25 23:55:51;;;;;;;10.15;6.57;;;20.20;90.10;;;;;;5052031;28;20025;-75
2021/07/25 23:58:17;;;;;;;12.27;9.30;;;20.20;90.10;;;;;;5051779;28;20119;-75
